Tiempo atmosférico en la estación meteorológica de El Maíllo, Salamanca (1027 m.)



Fecha
DESCASC
Temp. máxima en grados centígrados (hora)
DESCASC
Temp. mínima en grados centígrados (hora)
DESCASC
Temp. media en grados centígrados
DESCASC
Racha de viento máxima en m/sg (hora)
DESCASC
Velocidad máxima media en intervalos de 10 minutos(hora)
DESCASC
Precipitaciones diarias en mm
DESCASC
Precipitaciones de 00:00 a 06:00 en mm
DESCASC
Precipitaciones de 06:00 a 12:00 en mm
DESCASC
Precipitaciones de 12:00 a 18:00 en mm
DESCASC
Precipitaciones de 18:00 a 24:00 en mm
DESCASC
22-04-2019 15 (13:50) 3.8 (06:20) 9.4 11.94 (23:59) 5.83 (17:00) 0 0 0 0 0
21-04-2019 13.9 (16:20) 4.5 (06:30) 9.2 11.11 (12:40) 7.78 (12:30) 0.2 0 0 0 0.2
20-04-2019 18.8 (16:20) 7.4 (07:10) 13.1 13.89 (15:40) 10 (15:50) 0 0 0 0 0
19-04-2019 12.7 (18:40) 4.9 (07:30) 8.8 11.94 (16:40) 7.78 (16:40) 2.6 1.4 0.2 1 0
18-04-2019 11.5 (16:10) 5.1 (00:00) 8.3 11.39 (16:20) 6.67 (16:20) 18.4 3.8 0.6 11.8 2.2
17-04-2019 15.4 (00:20) 7 (00:00) 11.2 29.17 (05:50) 13.89 (10:20) 15.4 0.2 0 0 15.2
16-04-2019 15.7 (18:40) 1.9 (00:00) 8.8 17.22 (23:59) 9.17 (23:59) 0 0 0 0 0
15-04-2019 16.5 (13:40) 6 (00:00) 11.3 17.78 (12:00) 11.39 (12:00) 3.2 0 0 2.2 1
14-04-2019 17.4 (15:10) 7 (00:00) 12.2 8.06 (14:50) 4.72 (16:40) 0 0 0 0 0
13-04-2019 17.9 (16:50) 4.3 (00:00) 11.1 8.33 (16:50) 5.56 (19:40) 0 0 0 0 0
12-04-2019 14.5 (18:30) 1.1 (00:00) 7.8 5.83 (17:20) 5.28 (05:50) 0 0 0 0 0
11-04-2019 11.3 (18:10) 0.3 (00:00) 5.8 7.78 (16:30) 4.72 (18:30) 0 0 0 0 0
10-04-2019 11.1 (17:40) 3 (00:00) 7.1 10.83 (17:00) 7.5 (17:50) 9.4 0 1.6 0 7.8
09-04-2019 8.5 (17:30) 2.8 (00:00) 5.6 14.17 (18:10) 9.17 (16:00) 6 0 3 0.6 2.4
08-04-2019 10.4 (14:20) 3.7 (00:00) 7 13.33 (02:40) 8.61 (00:30) 5.8 2 0.8 0 3
07-04-2019 8.5 (18:50) 1.5 (00:00) 5 14.72 (23:50) 8.89 (23:50) 0.4 0.4 0 0 0
06-04-2019 6.1 (15:20) 0.2 (00:00) 3.1 14.72 (13:40) 9.44 (14:20) 6.2 0.6 1.8 2 1.8
05-04-2019 6 (17:10) 0.1 (00:00) 3.1 13.06 (02:30) 8.06 (02:40) 7.2 2.2 0.6 1.6 2.8
04-04-2019 10.4 (17:00) -4.3 (-00:0) 3 11.67 (18:30) 6.94 (23:20) 2.2 0 0 0 2.2
03-04-2019 9 (15:50) 1.7 (23:59) 5.4 10.83 (17:00) 6.94 (17:20) 0 0 0 0 0
02-04-2019 15.2 (18:00) 4.1 (00:00) 9.6 9.72 (14:30) 6.11 (17:50) 0 0 0 0 0
01-04-2019 13.4 (14:20) 4.2 (00:00) 8.8 8.61 (16:00) 5.83 (21:20) 0 0 0 0 0
31-03-2019 14.3 (13:30) 4.6 (00:00) 9.5 9.17 (15:20) 5.83 (05:10) 2.6 0 0 2.6 0
30-03-2019 15.3 (16:30) 4.2 (00:00) 9.8 7.5 (01:40) 5.56 (01:40) 0 0 0 0 0
29-03-2019 15.9 (15:40) 3.3 (00:00) 9.6 7.78 (04:10) 5.83 (04:10) 0 0 0 0 0
28-03-2019 15.8 (16:40) 0.8 (00:00) 8.3 6.94 (00:10) 5.56 (23:40) 0 0 0 0 0
27-03-2019 16 (16:50) 0.1 (00:00) 8.1 9.17 (16:20) 5.28 (23:50) 0 0 0 0 0
26-03-2019 17 (16:50) 0.1 (00:00) 8.6 11.94 (17:20) 8.33 (10:40) 0 0 0 0 0
25-03-2019 16.6 (16:00) 3.2 (00:00) 9.9 11.94 (22:30) 8.89 (22:40) 0 0 0 0 0

Gráficas

Temp. máximas Temp. mínimas Temp. medias Precipitaciones Rachas de viento máximas Velocidades máximas media en intervalos de 10 minutos

Datos horarios

Fecha y hora oficial Temperatura (ºC) Velocidad del viento (km/h) Dirección del viento Racha (km/h) Dirección de racha Precipitación (mm) Presión (hPa) Tendencia (hPa) Humedad (%)
2019-04-23 23:00:00 2.1 14 Sudoeste 23 Sudoeste 0.2 -- -- 91
2019-04-23 22:00:00 2.3 10 Sudoeste 23 Sudoeste 0 -- -- 86
2019-04-23 21:00:00 3.8 12 Sudoeste 32 Oeste 0 -- -- 81
2019-04-23 20:00:00 4.6 23 Oeste 41 Oeste 0 -- -- 81
2019-04-23 19:00:00 4.8 25 Oeste 39 Oeste 0 -- -- 81
2019-04-23 18:00:00 5.1 26 Oeste 53 Oeste 0.6 -- -- 88
2019-04-23 17:00:00 4.5 19 Oeste 35 Oeste 1.6 -- -- 86
2019-04-23 16:00:00 4.8 23 Oeste 40 Noroeste 2 -- -- 87
2019-04-23 15:00:00 3.6 14 Sudoeste 40 Sudoeste 2.8 -- -- 91
2019-04-23 14:00:00 6.4 14 Sudoeste 32 Sur 0 -- -- 80
2019-04-23 13:00:00 5.3 12 Sur 32 Sur 0.2 -- -- 83
2019-04-23 12:00:00 6.2 17 Sur 31 Sur 0 -- -- 74
2019-04-23 11:00:00 6.2 12 Sur 25 Sur 0 -- -- 76
2019-04-23 10:00:00 4.3 17 Sudoeste 26 Sur 0 -- -- 82
2019-04-23 09:00:00 2 15 Sudoeste 26 Sudoeste 0 -- -- 91
2019-04-23 08:00:00 2.9 14 Sudoeste 25 Sudoeste 0.2 -- -- 94
2019-04-23 07:00:00 3.7 12 Sudoeste 28 Sudoeste 0 -- -- 94
2019-04-23 06:00:00 3.9 17 Sudoeste 33 Sudoeste 0 -- -- 93
2019-04-23 05:00:00 4.7 19 Sudoeste 30 Sur 1.2 -- -- 94
2019-04-23 04:00:00 4.1 16 Sudoeste 32 Sudoeste 3.2 -- -- 94
2019-04-23 03:00:00 6.5 15 Sudoeste 44 Sudoeste 1 -- -- 91
2019-04-23 02:00:00 8 19 Sudoeste 48 Sur 0.2 -- -- 75
2019-04-23 01:00:00 8.4 24 Sur 53 Sur 0 -- -- 77
2019-04-23 00:00:00 9.6 18 Sur 43 Sudoeste 0 -- -- 69
2019-04-22 23:00:00 10.4 13 Sudoeste 22 Sudoeste 0 -- -- 72
2019-04-22 22:00:00 11.1 12 Sudoeste 30 Sudoeste 0 -- -- 71
2019-04-22 21:00:00 11.9 18 Sudoeste 29 Sudoeste 0 -- -- 66
2019-04-22 20:00:00 12.9 16 Sur 30 Sudoeste 0 -- -- 55
2019-04-22 19:00:00 13.8 16 Sur 32 Sur 0 -- -- 54
2019-04-22 18:00:00 13.9 18 Sur 32 Sur 0 -- -- 56
2019-04-22 17:00:00 14.4 21 Sur 33 Sudoeste 0 -- -- 59
2019-04-22 16:00:00 14 15 Sur 28 Sur 0 -- -- 60
2019-04-22 15:00:00 14.7 13 Sudoeste 27 Oeste 0 -- -- 58
2019-04-22 14:00:00 14.3 16 Sudoeste 31 Sudoeste 0 -- -- 56
2019-04-22 13:00:00 12.8 11 Oeste 19 Oeste 0 -- -- 56
2019-04-22 12:00:00 12.7 6 Noroeste 19 Noroeste 0 -- -- 61
2019-04-22 11:00:00 11.2 4 Sudoeste 7 Sur 0 -- -- 66
2019-04-22 10:00:00 9.6 0 Calma 9 Oeste 0 -- -- 72
2019-04-22 09:00:00 6.4 9 Sur 16 Sur 0 -- -- 84
2019-04-22 08:00:00 3.8 13 Sur 18 Sur 0 -- -- 89
2019-04-22 07:00:00 4.2 14 Sur 18 Sur 0 -- -- 87
2019-04-22 06:00:00 4.1 11 Sur 18 Sudeste 0 -- -- 87
2019-04-22 05:00:00 4.5 14 Sudeste 17 Sudeste 0 -- -- 86
2019-04-22 04:00:00 5.4 13 Sur 17 Sudeste 0 -- -- 84
2019-04-22 03:00:00 7 7 Sur 8 Sur 0 -- -- 83
2019-04-22 02:00:00 6.6 4 Sudeste 11 Sur 0 -- -- 86
2019-04-22 01:00:00 6.1 7 Sudeste 10 Sur 0 -- -- 82
2019-04-22 00:00:00 8.5 6 Este 9 Este 0 -- -- 77
2019-04-21 23:00:00 8.8 6 Este 9 Este 0 -- -- 74
2019-04-21 22:00:00 9.1 4 Este 9 Nordeste 0 -- -- 75
2019-04-21 21:00:00 10.7 10 Nordeste 24 Nordeste 0 -- -- 65
2019-04-21 20:00:00 12.5 15 Nordeste 34 Nordeste 0 -- -- 58
2019-04-21 19:00:00 12.1 13 Nordeste 28 Nordeste 0.2 -- -- 68
2019-04-21 18:00:00 13.3 22 Nordeste 31 Nordeste 0 -- -- 55
2019-04-21 17:00:00 12.7 22 Nordeste 37 Norte 0 -- -- 57
2019-04-21 16:00:00 12.8 25 Nordeste 37 Norte 0 -- -- 58
2019-04-21 15:00:00 13.6 22 Nordeste 40 Nordeste 0 -- -- 58
2019-04-21 14:00:00 12.5 25 Nordeste 40 Nordeste 0 -- -- 55
2019-04-21 13:00:00 11.7 23 Nordeste 40 Nordeste 0 -- -- 63
2019-04-21 12:00:00 10.2 27 Nordeste 38 Nordeste 0 -- -- 65
2019-04-21 11:00:00 9.5 22 Nordeste 31 Nordeste 0 -- -- 74
2019-04-21 10:00:00 8.3 18 Nordeste 27 Nordeste 0 -- -- 80
2019-04-21 09:00:00 6.8 9 Nordeste 13 Nordeste 0 -- -- 87
2019-04-21 08:00:00 5.3 0 Calma 12 Sur 0 -- -- 92
2019-04-21 07:00:00 4.5 7 Sur 12 Sur 0 -- -- 91
2019-04-21 06:00:00 4.8 8 Sur 15 Sur 0 -- -- 88
2019-04-21 05:00:00 6 8 Sudoeste 12 Sudoeste 0 -- -- 88
2019-04-21 04:00:00 7.8 10 Sudoeste 17 Sudoeste 0 -- -- 83
2019-04-21 03:00:00 7.7 10 Sudoeste 13 Sudoeste 0 -- -- 75
2019-04-21 02:00:00 9.2 8 Nordeste 16 Este 0 -- -- 69
2019-04-21 01:00:00 11.2 14 Este 35 Este 0 -- -- 58
2019-04-21 00:00:00 12 12 Este 21 Este 0 -- -- 54
2019-04-20 23:00:00 11.9 12 Este 18 Nordeste 0 -- -- 56
2019-04-20 22:00:00 12.4 8 Este 19 Nordeste 0 -- -- 60
2019-04-20 21:00:00 15.2 16 Nordeste 32 Nordeste 0 -- -- 54
2019-04-20 20:00:00 17.3 23 Nordeste 38 Norte 0 -- -- 48
2019-04-20 19:00:00 18.3 24 Nordeste 37 Nordeste 0 -- -- 42
2019-04-20 18:00:00 18.6 26 Nordeste 44 Nordeste 0 -- -- 43
2019-04-20 17:00:00 18.6 31 Nordeste 49 Nordeste 0 -- -- 40
2019-04-20 16:00:00 18.5 31 Nordeste 50 Nordeste 0 -- -- 42
2019-04-20 15:00:00 17.7 28 Nordeste 41 Nordeste 0 -- -- 44
2019-04-20 14:00:00 16.2 25 Nordeste 45 Nordeste 0 -- -- 54
2019-04-20 13:00:00 14.7 24 Nordeste 35 Nordeste 0 -- -- 61
2019-04-20 12:00:00 12.9 23 Nordeste 33 Nordeste 0 -- -- 64
2019-04-20 11:00:00 10.9 19 Nordeste 29 Nordeste 0 -- -- 70
2019-04-20 10:00:00 10.2 17 Nordeste 31 Nordeste 0 -- -- 70
2019-04-20 09:00:00 8.9 21 Nordeste 35 Este 0 -- -- 72
2019-04-20 08:00:00 7.8 12 Este 24 Nordeste 0 -- -- 74
2019-04-20 07:00:00 7.9 13 Nordeste 25 Este 0 -- -- 77
2019-04-20 06:00:00 8.6 17 Este 26 Este 0 -- -- 76
2019-04-20 05:00:00 8.2 13 Nordeste 23 Este 0 -- -- 82
2019-04-20 04:00:00 9.5 19 Este 37 Este 0 -- -- 76
2019-04-20 03:00:00 10 20 Este 39 Este 0 -- -- 74
2019-04-20 02:00:00 10.1 27 Este 45 Este 0 -- -- 74
2019-04-20 01:00:00 10.2 23 Este 39 Este 0 -- -- 79
2019-04-20 00:00:00 9.7 16 Nordeste 32 Nordeste 0 -- -- 88
2019-04-19 23:00:00 9.5 20 Nordeste 33 Nordeste 0 -- -- 88
2019-04-19 22:00:00 9.5 20 Nordeste 34 Nordeste 0 -- -- 83
2019-04-19 21:00:00 10.4 23 Nordeste 35 Nordeste 0 -- -- 79
2019-04-19 20:00:00 11.4 15 Nordeste 30 Nordeste 0 -- -- 69
2019-04-19 19:00:00 11.8 19 Nordeste 38 Nordeste 0 -- -- 68
2019-04-19 18:00:00 11.8 19 Este 40 Nordeste 0 -- -- 65
2019-04-19 17:00:00 12 24 Nordeste 43 Este 0 -- -- 68
2019-04-19 16:00:00 11.4 22 Nordeste 37 Este 0.2 -- -- 78
2019-04-19 15:00:00 10.2 22 Nordeste 39 Nordeste 0.8 -- -- 85
2019-04-19 14:00:00 11.5 11 Nordeste 24 Nordeste 0 -- -- 73
2019-04-19 13:00:00 10.5 8 Este 18 Este 0 -- -- 72
2019-04-19 12:00:00 10.4 13 Este 22 Este 0 -- -- 74
2019-04-19 11:00:00 9.2 11 Nordeste 23 Este 0 -- -- 83
2019-04-19 10:00:00 8.5 14 Este 23 Este 0 -- -- 85
2019-04-19 09:00:00 6.6 11 Este 17 Este 0 -- -- 96
2019-04-19 08:00:00 5.2 3 Sudeste 8 Sudeste 0.2 -- -- 97
2019-04-19 07:00:00 5 3 Sur 10 Sudeste 0 -- -- 97
2019-04-19 06:00:00 5.2 4 Sur 10 Sudoeste 0 -- -- 97
2019-04-19 05:00:00 5.4 6 Sudoeste 10 Sudoeste 0 -- -- 97
2019-04-19 04:00:00 5.7 4 Sudoeste 9 Sudoeste 0 -- -- 98
2019-04-19 03:00:00 5.9 5 Sudoeste 7 Sudoeste 0.2 -- -- 97
2019-04-19 02:00:00 6.1 4 Sudoeste 14 Oeste 1 -- -- 97
2019-04-19 01:00:00 6.2 2 Sur 13 Noroeste 0.2 -- -- 96
2019-04-19 00:00:00 5.9 8 Sur 16 Sur 0 -- -- 95
2019-04-18 23:00:00 6.1 10 Sur 13 Sur 0 -- -- 93
2019-04-18 22:00:00 6.3 9 Sur 19 Este 1.6 -- -- 92
2019-04-18 21:00:00 6.7 9 Este 30 Nordeste 0.4 -- -- 91
2019-04-18 20:00:00 8.5 6 Sur 15 Sur 0.2 -- -- 88
2019-04-18 19:00:00 7.8 6 Sur 21 Sudeste 0 -- -- 87
2019-04-18 18:00:00 7.9 20 Sudeste 29 Sudeste 1 -- -- 85
2019-04-18 17:00:00 7.3 9 Sur 41 Nordeste 9.2 -- -- 90
2019-04-18 16:00:00 10.9 6 Sudoeste 18 Sur 0 -- -- 76
2019-04-18 15:00:00 10.1 8 Oeste 15 Oeste 0 -- -- 74
2019-04-18 14:00:00 10.4 4 Sudoeste 22 Este 0 -- -- 67
2019-04-18 13:00:00 9.5 14 Este 21 Este 1.6 -- -- 86
2019-04-18 12:00:00 8.5 3 Este 13 Este 0 -- -- 80
2019-04-18 11:00:00 8.4 4 Este 18 Sudeste 0 -- -- 79
2019-04-18 10:00:00 7.9 8 Sur 14 Sur 0 -- -- 83
2019-04-18 09:00:00 6.1 4 Nordeste 12 Sur 0 -- -- 95
2019-04-18 08:00:00 5.2 6 Este 11 Este 0.2 -- -- 93
2019-04-18 07:00:00 5.9 3 Sur 14 Sudoeste 0.4 -- -- 92
2019-04-18 06:00:00 6.4 7 Sudoeste 19 Sudoeste 0 -- -- 90
2019-04-18 05:00:00 6.7 12 Sur 23 Sudoeste 0 -- -- 87
2019-04-18 04:00:00 6.6 12 Sur 25 Sur 0 -- -- 89
2019-04-18 03:00:00 6.8 6 Sudoeste 21 Sudoeste 0.6 -- -- 91
2019-04-18 02:00:00 6.7 4 Sudoeste 25 Sur 0.6 -- -- 90
2019-04-18 01:00:00 6.9 22 Sur 36 Sur 2.6 -- -- 88
2019-04-18 00:00:00 7 24 Sur 39 Sur 2.6 -- -- 87
2019-04-17 23:00:00 7.5 19 Sur 44 Sur 0.2 -- -- 89
2019-04-17 22:00:00 7.8 27 Sur 47 Sur 1 -- -- 86
2019-04-17 21:00:00 7.5 20 Sur 32 Sur 3.2 -- -- 90
2019-04-17 20:00:00 8.5 13 Sudoeste 33 Sudoeste 8 -- -- 94
2019-04-17 19:00:00 10.9 24 Sudoeste 51 Sur 0.2 -- -- 79
2019-04-17 18:00:00 12.9 29 Sudeste 89 Sudeste 0 -- -- 67
2019-04-17 17:00:00 13.8 39 Sudeste 69 Sudeste 0 -- -- 58
2019-04-17 16:00:00 14.6 28 Sur 66 Sudeste 0 -- -- 59
2019-04-17 15:00:00 14.2 28 Sur 74 Sudeste 0 -- -- 56
2019-04-17 14:00:00 13.4 31 Sudeste 66 Sur 0 -- -- 59
2019-04-17 13:00:00 13.1 37 Sudeste 78 Sur 0 -- -- 57
2019-04-17 12:00:00 12.6 38 Sur 79 Sur 0 -- -- 59
2019-04-17 11:00:00 11.6 40 Sur 85 Sur 0 -- -- 61
2019-04-17 10:00:00 11.4 44 Sur 72 Sur 0 -- -- 62
2019-04-17 09:00:00 10.6 36 Sur 79 Sudeste 0 -- -- 66
2019-04-17 08:00:00 10.5 41 Sur 84 Sudeste 0 -- -- 64
2019-04-17 07:00:00 11.2 42 Sur 79 Sur 0 -- -- 64
2019-04-17 06:00:00 11.5 37 Sur 105 Sur 0.2 -- -- 61
2019-04-17 05:00:00 11.9 42 Sur 81 Sur 0 -- -- 54
2019-04-17 04:00:00 12.4 40 Sur 81 Sur 0 -- -- 51
2019-04-17 03:00:00 13.1 41 Sur 78 Sur 0 -- -- 52
2019-04-17 02:00:00 13.9 40 Sur 85 Sudeste 0 -- -- 48
2019-04-17 01:00:00 14.7 42 Sudeste 75 Sudeste 0 -- -- 45
2019-04-17 00:00:00 14.6 33 Sudeste 62 Este 0 -- -- 45
2019-04-16 23:00:00 12.2 12 Este 39 Sudeste 0 -- -- 55
2019-04-16 22:00:00 14 22 Sudeste 41 Sudeste 0 -- -- 48
2019-04-16 21:00:00 13.4 5 Sudeste 22 Sudeste 0 -- -- 51
2019-04-16 20:00:00 14.5 5 Noroeste 27 Sudeste 0 -- -- 49
2019-04-16 19:00:00 15.1 8 Sudeste 29 Sudoeste 0 -- -- 46
2019-04-16 18:00:00 15.6 11 Sur 31 Sur 0 -- -- 48
2019-04-16 17:00:00 15.2 20 Sur 32 Sur 0 -- -- 43
2019-04-16 16:00:00 14.7 22 Sur 48 Sur 0 -- -- 44
2019-04-16 15:00:00 14.6 11 Sudeste 33 Sur 0 -- -- 39
2019-04-16 14:00:00 13.9 16 Sudeste 31 Sudeste 0 -- -- 47
2019-04-16 13:00:00 13.5 18 Sudeste 32 Sudeste 0 -- -- 49
2019-04-16 12:00:00 13 5 Noroeste 21 Norte 0 -- -- 47
2019-04-16 11:00:00 11.7 4 Norte 9 Noroeste 0 -- -- 64
2019-04-16 10:00:00 9.2 0 Calma 10 Sudeste 0 -- -- 69
2019-04-16 09:00:00 4.6 8 Sur 21 Sur 0 -- -- 84
2019-04-16 08:00:00 2.2 15 Sudeste 20 Sur 0 -- -- 90
2019-04-16 07:00:00 1.9 11 Sur 17 Sudeste 0 -- -- 95
2019-04-16 06:00:00 2.2 6 Sudeste 12 Sur 0 -- -- 95
2019-04-16 05:00:00 2 11 Sur 13 Sur 0 -- -- 95
2019-04-16 04:00:00 2.4 8 Sudeste 17 Sudeste 0 -- -- 94
2019-04-16 03:00:00 3.7 13 Sur 18 Sur 0 -- -- 95
2019-04-16 02:00:00 4.4 10 Sur 12 Sudeste 0 -- -- 96
2019-04-16 01:00:00 5.1 5 Sur 11 Sudoeste 0 -- -- 94
2019-04-16 00:00:00 6 8 Sudoeste 15 Sudoeste 0 -- -- 94
2019-04-15 23:00:00 6.7 12 Sudoeste 18 Sudoeste 0 -- -- 92
2019-04-15 22:00:00 7.3 13 Sudoeste 18 Sudoeste 0 -- -- 91
2019-04-15 21:00:00 8.8 9 Sudoeste 25 Oeste 0 -- -- 89
2019-04-15 20:00:00 9.7 10 Sudoeste 40 Oeste 1 -- -- 94
2019-04-15 19:00:00 10.2 12 Oeste 21 Sudoeste 0 -- -- 87
2019-04-15 18:00:00 9.9 9 Sudoeste 22 Sudoeste 0.4 -- -- 89
2019-04-15 17:00:00 8.1 13 Sudoeste 24 Sudoeste 1.8 -- -- 91
2019-04-15 16:00:00 8.6 19 Oeste 47 Oeste 0 -- -- 83
2019-04-15 15:00:00 14.2 31 Oeste 50 Sudoeste 0 -- -- 61
2019-04-15 14:00:00 15.9 24 Sudoeste 43 Sur 0 -- -- 54
2019-04-15 13:00:00 15.9 32 Sur 60 Sudoeste 0 -- -- 58
2019-04-15 12:00:00 15 41 Sudoeste 64 Sudoeste 0 -- -- 68
2019-04-15 11:00:00 14 40 Sur 56 Sur 0 -- -- 72
2019-04-15 10:00:00 13.8 32 Sur 57 Sur 0 -- -- 76
2019-04-15 09:00:00 14 29 Sur 51 Sur 0 -- -- 76
2019-04-15 08:00:00 14.1 23 Sur 45 Sudeste 0 -- -- 75
2019-04-15 07:00:00 13.8 20 Sur 39 Sur 0 -- -- 77
2019-04-15 06:00:00 13.8 23 Sudeste 42 Sur 0 -- -- 78
2019-04-15 05:00:00 14.1 19 Sudeste 36 Sudeste 0 -- -- 77
2019-04-15 04:00:00 14 10 Sur 30 Sur 0 -- -- 77
2019-04-15 03:00:00 14 12 Sudoeste 33 Sur 0 -- -- 74
2019-04-15 02:00:00 13.8 6 Sudeste 27 Sur 0 -- -- 79
2019-04-15 01:00:00 12.6 4 Sudeste 19 Sur 0 -- -- 82
2019-04-15 00:00:00 13.3 9 Sur 15 Sur 0 -- -- 77
2019-04-14 23:00:00 13.2 6 Sudeste 22 Sur 0 -- -- 77
2019-04-14 22:00:00 14.1 11 Sur 20 Sur 0 -- -- 74
2019-04-14 21:00:00 14.8 14 Sur 21 Sur 0 -- -- 69
2019-04-14 20:00:00 16.2 8 Sur 18 Sudoeste 0 -- -- 68
2019-04-14 19:00:00 16.6 12 Sudoeste 22 Sudoeste 0 -- -- 65
2019-04-14 18:00:00 16.9 15 Sudoeste 22 Sudoeste 0 -- -- 64
2019-04-14 17:00:00 16.7 13 Oeste 26 Oeste 0 -- -- 67
2019-04-14 16:00:00 17 9 Oeste 26 Oeste 0 -- -- 62
2019-04-14 15:00:00 17.1 15 Oeste 29 Oeste 0 -- -- 63
2019-04-14 14:00:00 16.4 7 Noroeste 16 Noroeste 0 -- -- 67
2019-04-14 13:00:00 15.7 4 Sudoeste 14 Oeste 0 -- -- 69
2019-04-14 12:00:00 14.3 3 Norte 10 Noroeste 0 -- -- 74
2019-04-14 11:00:00 12.7 5 Oeste 12 Oeste 0 -- -- 83
2019-04-14 10:00:00 11.3 4 Oeste 13 Este 0 -- -- 91
2019-04-14 09:00:00 9.3 7 Este 19 Sur 0 -- -- 94
2019-04-14 08:00:00 7 12 Sur 15 Sur 0 -- -- 94
2019-04-14 07:00:00 8 10 Sur 15 Sur 0 -- -- 93
2019-04-14 06:00:00 8.6 7 Sur 12 Sur 0 -- -- 93
2019-04-14 05:00:00 10 5 Sudoeste 11 Oeste 0 -- -- 93
2019-04-14 04:00:00 10.3 8 Sudoeste 14 Sudoeste 0 -- -- 93
2019-04-14 03:00:00 10.5 7 Sudoeste 14 Sudoeste 0 -- -- 93
2019-04-14 02:00:00 10.4 7 Sudoeste 13 Sudoeste 0 -- -- 92
2019-04-14 01:00:00 10 8 Sudoeste 17 Sudoeste 0 -- -- 90
2019-04-14 00:00:00 10.3 11 Sudoeste 15 Sudoeste 0 -- -- 83
2019-04-13 23:00:00 10.7 10 Sudoeste 13 Sudoeste 0 -- -- 76
2019-04-13 22:00:00 11.7 8 Sudoeste 13 Sudoeste 0 -- -- 70
2019-04-13 21:00:00 13.7 13 Oeste 26 Oeste 0 -- -- 61
2019-04-13 20:00:00 15.2 13 Oeste 29 Oeste 0 -- -- 54
2019-04-13 19:00:00 16.5 14 Sudoeste 24 Oeste 0 -- -- 48
2019-04-13 18:00:00 17 12 Sudoeste 30 Noroeste 0 -- -- 45
2019-04-13 17:00:00 17.8 16 Noroeste 30 Oeste 0 -- -- 43
2019-04-13 16:00:00 17.6 18 Oeste 30 Noroeste 0 -- -- 38
2019-04-13 15:00:00 16.6 13 Noroeste 26 Noroeste 0 -- -- 38
2019-04-13 14:00:00 16.3 9 Noroeste 21 Noroeste 0 -- -- 43
2019-04-13 13:00:00 15.6 7 Norte 14 Noroeste 0 -- -- 42
2019-04-13 12:00:00 14.4 5 Nordeste 13 Norte 0 -- -- 44
2019-04-13 11:00:00 13.1 3 Nordeste 13 Nordeste 0 -- -- 47
2019-04-13 10:00:00 12.5 4 Norte 9 Sur 0 -- -- 53
2019-04-13 09:00:00 8 9 Sur 18 Sur 0 -- -- 72
2019-04-13 08:00:00 5.9 15 Sur 19 Sur 0 -- -- 78
2019-04-13 07:00:00 5.5 14 Sur 19 Sur 0 -- -- 79
2019-04-13 06:00:00 5.4 11 Sur 18 Sur 0 -- -- 77
2019-04-13 05:00:00 4.9 14 Sur 17 Sur 0 -- -- 77
2019-04-13 04:00:00 4.8 13 Sur 19 Sur 0 -- -- 74
2019-04-13 03:00:00 4.4 16 Sur 18 Sur 0 -- -- 74
2019-04-13 02:00:00 4.4 13 Sudeste 15 Sudeste 0 -- -- 79
2019-04-13 01:00:00 4.7 12 Sudeste 15 Sur 0 -- -- 79
2019-04-13 00:00:00 5.3 12 Sur 16 Sudeste 0 -- -- 75
2019-04-12 23:00:00 5.9 13 Sur 17 Sudeste 0 -- -- 74
2019-04-12 22:00:00 6.6 10 Sur 15 Sur 0 -- -- 73
2019-04-12 21:00:00 10.9 4 Este 17 Noroeste 0 -- -- 61
2019-04-12 20:00:00 13.7 6 Norte 17 Norte 0 -- -- 48
2019-04-12 19:00:00 14.3 4 Noroeste 19 Noroeste 0 -- -- 45
2019-04-12 18:00:00 14.2 9 Noroeste 21 Noroeste 0 -- -- 46
2019-04-12 17:00:00 13.9 8 Norte 18 Noroeste 0 -- -- 47
2019-04-12 16:00:00 13.4 8 Norte 21 Noroeste 0 -- -- 46
2019-04-12 15:00:00 12.8 9 Norte 19 Norte 0 -- -- 51
2019-04-12 14:00:00 11.9 7 Norte 20 Norte 0 -- -- 53
2019-04-12 13:00:00 11.5 6 Norte 16 Norte 0 -- -- 51
2019-04-12 12:00:00 10.3 5 Norte 14 Noroeste 0 -- -- 53
2019-04-12 11:00:00 8.9 3 Norte 10 Noroeste 0 -- -- 68
2019-04-12 10:00:00 7.4 8 Noroeste 16 Sur 0 -- -- 71
2019-04-12 09:00:00 3.5 13 Sur 18 Sur 0 -- -- 80
2019-04-12 08:00:00 1.7 14 Sur 18 Sur 0 -- -- 84
2019-04-12 07:00:00 1.3 17 Sur 21 Sur 0 -- -- 85
2019-04-12 06:00:00 1.2 16 Sur 21 Sur 0 -- -- 85
2019-04-12 05:00:00 1.7 10 Sudeste 14 Nordeste 0 -- -- 84
2019-04-12 04:00:00 1.5 11 Sur 13 Sur 0 -- -- 85
2019-04-12 03:00:00 2.2 8 Este 10 Este 0 -- -- 81
2019-04-12 02:00:00 2.5 9 Sudeste 12 Este 0 -- -- 80
2019-04-12 01:00:00 1.8 8 Este 10 Este 0 -- -- 87
2019-04-12 00:00:00 2 6 Sudeste 8 Este 0 -- -- 87
2019-04-11 23:00:00 2.8 6 Sudeste 8 Este 0 -- -- 84
2019-04-11 22:00:00 5.1 7 Este 8 Este 0 -- -- 73
2019-04-11 21:00:00 8.1 6 Nordeste 14 Nordeste 0 -- -- 61
2019-04-11 20:00:00 10.2 5 Noroeste 22 Nordeste 0 -- -- 54
2019-04-11 19:00:00 10.9 9 Norte 22 Nordeste 0 -- -- 51
2019-04-11 18:00:00 11.2 12 Norte 22 Norte 0 -- -- 50
2019-04-11 17:00:00 10.6 13 Norte 28 Nordeste 0 -- -- 54
2019-04-11 16:00:00 10.3 13 Norte 26 Noroeste 0 -- -- 55
2019-04-11 15:00:00 9.6 12 Nordeste 25 Nordeste 0 -- -- 61
2019-04-11 14:00:00 9.7 11 Norte 19 Norte 0 -- -- 62
2019-04-11 13:00:00 8.7 10 Norte 22 Norte 0 -- -- 65
2019-04-11 12:00:00 8 8 Nordeste 20 Nordeste 0 -- -- 67
2019-04-11 11:00:00 7.3 9 Nordeste 16 Norte 0 -- -- 75
2019-04-11 10:00:00 6.2 8 Nordeste 17 Nordeste 0 -- -- 83
2019-04-11 09:00:00 3.5 5 Nordeste 7 Nordeste 0 -- -- 100
2019-04-11 08:00:00 0.3 4 Sudeste 5 Sudeste 0 -- -- 97
2019-04-11 07:00:00 1.3 4 Sudeste 6 Sudeste 0 -- -- 97
2019-04-11 06:00:00 2.4 0 Calma 8 Nordeste 0 -- -- 95
2019-04-11 05:00:00 4.2 3 Este 7 Nordeste 0 -- -- 96
2019-04-11 04:00:00 4.2 0 Calma 6 Este 0 -- -- 97
2019-04-11 03:00:00 3.2 4 Sur 10 Sur 0 -- -- 97
2019-04-11 02:00:00 3 8 Sur 12 Sur 0 -- -- 95
2019-04-11 01:00:00 3.9 5 Sur 11 Sur 0 -- -- 94
2019-04-11 00:00:00 4.8 4 Sudoeste 16 Nordeste 1.6 -- -- 93
2019-04-10 23:00:00 5.1 7 Nordeste 15 Nordeste 1.2 -- -- 92
2019-04-10 22:00:00 4.5 6 Nordeste 22 Este 4 -- -- 91
2019-04-10 21:00:00 4.8 18 Nordeste 33 Nordeste 1 -- -- 86
2019-04-10 20:00:00 5.5 13 Este 38 Nordeste 0 -- -- 79
2019-04-10 19:00:00 9.6 20 Noroeste 31 Oeste 0 -- -- 66
2019-04-10 18:00:00 10.3 21 Noroeste 38 Noroeste 0 -- -- 62
2019-04-10 17:00:00 9.9 25 Oeste 39 Noroeste 0 -- -- 62
2019-04-10 16:00:00 9.2 21 Oeste 37 Noroeste 0 -- -- 66
2019-04-10 15:00:00 8.1 19 Oeste 34 Noroeste 0 -- -- 70
2019-04-10 14:00:00 8.2 22 Oeste 37 Noroeste 0 -- -- 74
2019-04-10 13:00:00 7 18 Oeste 33 Noroeste 0 -- -- 80
2019-04-10 12:00:00 5.8 17 Oeste 30 Oeste 0 -- -- 89
2019-04-10 11:00:00 4.3 21 Oeste 31 Oeste 0 -- -- 98
2019-04-10 10:00:00 4 13 Oeste 24 Oeste 0 -- -- 99
2019-04-10 09:00:00 3.4 17 Oeste 26 Oeste 0.2 -- -- 98
2019-04-10 08:00:00 3.1 11 Oeste 25 Sudoeste 1.2 -- -- 97
2019-04-10 07:00:00 3.2 11 Sudoeste 24 Sudoeste 0.2 -- -- 96
2019-04-10 06:00:00 3.4 13 Oeste 28 Sudoeste 0 -- -- 95
2019-04-10 05:00:00 3.1 14 Sudoeste 28 Oeste 0 -- -- 94
2019-04-10 04:00:00 3.6 14 Oeste 26 Oeste 0 -- -- 94
2019-04-10 03:00:00 3.6 18 Oeste 32 Oeste 0 -- -- 95
2019-04-10 02:00:00 3.8 20 Oeste 35 Oeste 0 -- -- 96
2019-04-10 01:00:00 4 19 Oeste 38 Oeste 0 -- -- 96
2019-04-10 00:00:00 4.2 22 Oeste 32 Sudoeste 0 -- -- 94
2019-04-09 23:00:00 4.5 19 Sudoeste 37 Oeste 0 -- -- 94
2019-04-09 22:00:00 4.9 20 Oeste 35 Sudoeste 0 -- -- 93
2019-04-09 21:00:00 5.3 23 Oeste 37 Oeste 0 -- -- 90
2019-04-09 20:00:00 5.9 22 Oeste 35 Sudoeste 1 -- -- 94
2019-04-09 19:00:00 5.5 16 Oeste 51 Oeste 1.4 -- -- 92
2019-04-09 18:00:00 7.4 27 Oeste 48 Oeste 0 -- -- 76
2019-04-09 17:00:00 6.7 22 Oeste 44 Oeste 0.2 -- -- 79
2019-04-09 16:00:00 5.5 33 Oeste 48 Oeste 0.2 -- -- 87
2019-04-09 15:00:00 7.3 20 Oeste 34 Sudoeste 0 -- -- 81
2019-04-09 14:00:00 5.4 18 Oeste 36 Oeste 0.2 -- -- 91
2019-04-09 13:00:00 6 20 Oeste 32 Oeste 0 -- -- 88
2019-04-09 12:00:00 4.1 23 Oeste 36 Sudoeste 0.4 -- -- 96
2019-04-09 11:00:00 3 32 Sudoeste 48 Sudoeste 2.4 -- -- 92
2019-04-09 10:00:00 4.5 20 Sudoeste 36 Sudoeste 0.2 -- -- 90
2019-04-09 09:00:00 4 21 Sudoeste 33 Sudoeste 0 -- -- 91
2019-04-09 08:00:00 3.9 21 Sudoeste 33 Sudoeste 0 -- -- 93
2019-04-09 07:00:00 4.1 19 Sudoeste 33 Sur 0 -- -- 92
2019-04-09 06:00:00 4.2 21 Sudoeste 40 Sudoeste 0 -- -- 90
2019-04-09 05:00:00 3.8 25 Sudoeste 41 Sur 0 -- -- 88
2019-04-09 04:00:00 3.6 21 Sudoeste 36 Sudoeste 0 -- -- 86
2019-04-09 03:00:00 3.5 19 Sudoeste 36 Sudoeste 0 -- -- 89
2019-04-09 02:00:00 3.6 20 Sudoeste 32 Sudoeste 0 -- -- 90
2019-04-09 01:00:00 3.7 15 Sudoeste 26 Sudoeste 0 -- -- 90
2019-04-09 00:00:00 4.4 13 Sudoeste 22 Sudoeste 0 -- -- 91
2019-04-08 23:00:00 4.3 14 Sudoeste 19 Sudoeste 0 -- -- 94
2019-04-08 22:00:00 4 10 Sur 21 Sur 1.4 -- -- 93
2019-04-08 21:00:00 4.3 8 Oeste 22 Noroeste 0.8 -- -- 88
2019-04-08 20:00:00 6.8 10 Sudoeste 21 Sudoeste 0 -- -- 84
2019-04-08 19:00:00 5.4 13 Sudoeste 36 Oeste 0.8 -- -- 93
2019-04-08 18:00:00 6.6 21 Oeste 41 Oeste 0 -- -- 86
2019-04-08 17:00:00 9.9 13 Oeste 30 Oeste 0 -- -- 57
2019-04-08 16:00:00 10.2 17 Oeste 32 Noroeste 0 -- -- 53
2019-04-08 15:00:00 10 14 Oeste 36 Oeste 0 -- -- 59
2019-04-08 14:00:00 9.7 17 Oeste 30 Oeste 0 -- -- 60
2019-04-08 13:00:00 7.1 17 Oeste 25 Sudoeste 0 -- -- 82
2019-04-08 12:00:00 6.8 18 Oeste 26 Oeste 0 -- -- 86
2019-04-08 11:00:00 5.5 13 Oeste 24 Oeste 0 -- -- 95
2019-04-08 10:00:00 5.4 12 Sudoeste 22 Sudoeste 0 -- -- 92
2019-04-08 09:00:00 4.8 10 Sudoeste 18 Sudoeste 0 -- -- 95
2019-04-08 08:00:00 4.9 10 Sudoeste 30 Oeste 0 -- -- 96
2019-04-08 07:00:00 5.5 17 Oeste 33 Oeste 0.8 -- -- 97
2019-04-08 06:00:00 6.4 20 Oeste 38 Sudoeste 1 -- -- 96
2019-04-08 05:00:00 7.6 22 Sudoeste 40 Sur 0.4 -- -- 94
2019-04-08 04:00:00 7.7 28 Sudoeste 44 Sur 0.2 -- -- 91
2019-04-08 03:00:00 7.6 26 Sur 48 Sur 0.2 -- -- 90
2019-04-08 02:00:00 7.3 23 Sur 40 Sudoeste 0.2 -- -- 89
2019-04-08 01:00:00 7.7 23 Sudoeste 46 Sudoeste 0 -- -- 83
2019-04-08 00:00:00 7.5 29 Sudoeste 53 Sudoeste 0 -- -- 84
2019-04-07 23:00:00 7.5 27 Sudoeste 40 Sur 0 -- -- 87
2019-04-07 22:00:00 7.6 23 Sudoeste 39 Sudoeste 0 -- -- 89
2019-04-07 21:00:00 7.3 23 Sudoeste 37 Sur 0 -- -- 88
2019-04-07 20:00:00 7.9 23 Sur 42 Sur 0 -- -- 84
2019-04-07 19:00:00 8.4 28 Sudoeste 45 Sur 0 -- -- 80
2019-04-07 18:00:00 8 27 Sur 46 Sur 0 -- -- 82
2019-04-07 17:00:00 6.9 15 Sur 28 Sudeste 0 -- -- 87
2019-04-07 16:00:00 6.8 15 Sur 34 Sudoeste 0 -- -- 78
2019-04-07 15:00:00 7.6 23 Sur 35 Sur 0 -- -- 76
2019-04-07 14:00:00 7.7 21 Sur 32 Sur 0 -- -- 75
2019-04-07 13:00:00 5.9 16 Sudoeste 25 Sudoeste 0 -- -- 82
2019-04-07 12:00:00 4.7 12 Sudoeste 21 Sudoeste 0 -- -- 90
2019-04-07 11:00:00 3.5 13 Sudoeste 19 Sudoeste 0 -- -- 93
2019-04-07 10:00:00 3.2 11 Sudoeste 20 Sudoeste 0 -- -- 94
2019-04-07 09:00:00 2.7 12 Sudoeste 19 Sudoeste 0 -- -- 97
2019-04-07 08:00:00 2 10 Sudoeste 21 Sudoeste 0 -- -- 96
2019-04-07 07:00:00 1.8 14 Sudoeste 24 Sudoeste 0 -- -- 96
2019-04-07 06:00:00 2 17 Sudoeste 28 Sudoeste 0 -- -- 97
2019-04-07 05:00:00 2 18 Sudoeste 29 Sudoeste 0 -- -- 97
2019-04-07 04:00:00 1.9 17 Sudoeste 30 Oeste 0.2 -- -- 96
2019-04-07 03:00:00 2 18 Sudoeste 31 Sudoeste 0 -- -- 96
2019-04-07 02:00:00 2.1 17 Oeste 30 Sudoeste 0 -- -- 96
2019-04-07 01:00:00 1.9 17 Sudoeste 28 Sudoeste 0.2 -- -- 96
2019-04-07 00:00:00 1.8 14 Sudoeste 27 Sudoeste 0.6 -- -- 95
2019-04-06 23:00:00 2.3 13 Sudoeste 35 Sudoeste 0.2 -- -- 91
2019-04-06 22:00:00 2.3 18 Sudoeste 29 Sudoeste 0 -- -- 88
2019-04-06 21:00:00 3 24 Oeste 38 Oeste 0 -- -- 84
2019-04-06 20:00:00 3.9 24 Sudoeste 39 Sudoeste 0 -- -- 80
2019-04-06 19:00:00 4.3 28 Oeste 44 Oeste 1 -- -- 78
2019-04-06 18:00:00 3.7 29 Sudoeste 49 Oeste 1.4 -- -- 86
2019-04-06 17:00:00 4.4 18 Oeste 36 Noroeste 0.4 -- -- 82
2019-04-06 16:00:00 4.6 19 Sudoeste 48 Sudoeste 0.2 -- -- 91
2019-04-06 15:00:00 5 31 Sudoeste 50 Oeste 0 -- -- 78
2019-04-06 14:00:00 3.8 32 Sudoeste 53 Oeste 0 -- -- 87
2019-04-06 13:00:00 4.6 27 Sudoeste 41 Sudoeste 0 -- -- 82
2019-04-06 12:00:00 2.7 25 Sudoeste 49 Sudoeste 0 -- -- 91
2019-04-06 11:00:00 1.7 23 Sudoeste 46 Sudoeste 0.4 -- -- 95
2019-04-06 10:00:00 0.5 22 Sudoeste 35 Sudoeste 0.8 -- -- 95
2019-04-06 09:00:00 0.5 18 Sudoeste 33 Sudoeste 0 -- -- 96
2019-04-06 08:00:00 0.7 18 Sudoeste 36 Sudoeste 0.4 -- -- 94
2019-04-06 07:00:00 1.1 19 Sudoeste 28 Sudoeste 0.2 -- -- 93
2019-04-06 06:00:00 1.6 21 Sudoeste 32 Sudoeste 0 -- -- 90
2019-04-06 05:00:00 1.3 19 Sudoeste 34 Sudoeste 0.2 -- -- 91
2019-04-06 04:00:00 1.4 15 Sudoeste 28 Sur 0 -- -- 91
2019-04-06 03:00:00 0.6 12 Sudoeste 28 Sudoeste 0.2 -- -- 95
2019-04-06 02:00:00 0.8 15 Sudoeste 25 Sudoeste 0.2 -- -- 96
2019-04-06 01:00:00 0.9 10 Sudoeste 23 Sudoeste 0 -- -- 95
2019-04-06 00:00:00 0.9 14 Sudoeste 28 Sudoeste 0.2 -- -- 95
2019-04-05 23:00:00 0.8 13 Sudoeste 29 Oeste 0.2 -- -- 95
2019-04-05 22:00:00 1.1 17 Sudoeste 39 Oeste 0.4 -- -- 93
2019-04-05 21:00:00 1.7 8 Sudoeste 28 Oeste 1 -- -- 94
2019-04-05 20:00:00 1.4 16 Sudoeste 27 Sur 0.8 -- -- 94
2019-04-05 19:00:00 0.9 10 Oeste 33 Oeste 0.2 -- -- 92
2019-04-05 18:00:00 4.5 21 Oeste 34 Sudoeste 0 -- -- 77
2019-04-05 17:00:00 5.6 18 Sudoeste 31 Sudoeste 0 -- -- 69
2019-04-05 16:00:00 5 14 Oeste 32 Oeste 0 -- -- 80
2019-04-05 15:00:00 3.5 22 Oeste 32 Oeste 0.4 -- -- 84
2019-04-05 14:00:00 0.3 20 Oeste 36 Oeste 1.2 -- -- 96
2019-04-05 13:00:00 3.6 16 Oeste 26 Oeste 0 -- -- 80
2019-04-05 12:00:00 2.6 12 Oeste 24 Sudoeste 0 -- -- 89
2019-04-05 11:00:00 1.7 14 Sudoeste 24 Sudoeste 0.2 -- -- 94
2019-04-05 10:00:00 1.1 10 Sudoeste 16 Sudoeste 0.4 -- -- 93
2019-04-05 09:00:00 0.8 10 Sudoeste 18 Sudoeste 0 -- -- 91
2019-04-05 08:00:00 0.4 9 Sudoeste 22 Sudoeste 0 -- -- 94
2019-04-05 07:00:00 0.5 15 Sudoeste 27 Oeste 0 -- -- 96
2019-04-05 06:00:00 2 20 Oeste 35 Sudoeste 1.2 -- -- 91
2019-04-05 05:00:00 3.1 19 Sudoeste 41 Sur 0.2 -- -- 90
2019-04-05 04:00:00 3.3 27 Sur 41 Sur 0 -- -- 87
2019-04-05 03:00:00 3.2 28 Sur 47 Sur 0 -- -- 88
2019-04-05 02:00:00 3.1 26 Sur 44 Sur 0.4 -- -- 89
2019-04-05 01:00:00 3.1 19 Sur 39 Sur 0.4 -- -- 90
2019-04-05 00:00:00 2.9 16 Sudoeste 36 Sur 0 -- -- 90
2019-04-04 23:00:00 3 20 Sur 35 Sur 0.4 -- -- 89
2019-04-04 22:00:00 2.2 12 Sudoeste 24 Sudoeste 1.6 -- -- 93
2019-04-04 21:00:00 3.5 12 Sudoeste 24 Oeste 0.2 -- -- 86
2019-04-04 20:00:00 5.4 14 Sudoeste 40 Sur 0 -- -- 63
2019-04-04 19:00:00 7.5 14 Sudoeste 42 Sudoeste 0 -- -- 46
2019-04-04 18:00:00 8.6 19 Sudoeste 35 Sudoeste 0 -- -- 42
2019-04-04 17:00:00 10.4 17 Sudoeste 31 Sudoeste 0 -- -- 40
2019-04-04 16:00:00 9.7 17 Sudoeste 33 Oeste 0 -- -- 37
2019-04-04 15:00:00 9 16 Oeste 33 Oeste 0 -- -- 43
2019-04-04 14:00:00 7.4 18 Noroeste 33 Noroeste 0 -- -- 48
2019-04-04 13:00:00 6.5 13 Noroeste 21 Noroeste 0 -- -- 50
2019-04-04 12:00:00 4.4 5 Noroeste 12 Oeste 0 -- -- 56
2019-04-04 11:00:00 3 3 Nordeste 9 Noroeste 0 -- -- 63
2019-04-04 10:00:00 1.3 0 Calma 9 Sudeste 0 -- -- 74
2019-04-04 09:00:00 -2.7 6 Sudeste 10 Sur 0 -- -- 90
2019-04-04 08:00:00 -4 7 Sur 13 Sur 0 -- -- 89
2019-04-04 07:00:00 -4.2 8 Sur 10 Sur 0 -- -- 90
2019-04-04 06:00:00 -3.8 0 Calma 9 Sur 0 -- -- 89
2019-04-04 05:00:00 -3.4 3 Sur 8 Norte 0 -- -- 86
2019-04-04 04:00:00 -3.1 3 Este 8 Nordeste 0 -- -- 85
2019-04-04 03:00:00 -1.3 5 Nordeste 8 Nordeste 0 -- -- 79
2019-04-04 02:00:00 -0.7 4 Este 8 Nordeste 0 -- -- 77
2019-04-04 01:00:00 0.7 3 Norte 9 Norte 0 -- -- 72
2019-04-04 00:00:00 1.7 7 Noroeste 16 Noroeste 0 -- -- 69
2019-04-03 23:00:00 2.5 7 Noroeste 20 Norte 0 -- -- 66
2019-04-03 22:00:00 3.4 7 Noroeste 18 Noroeste 0 -- -- 60
2019-04-03 21:00:00 4.8 10 Noroeste 30 Noroeste 0 -- -- 57
2019-04-03 20:00:00 6.2 21 Noroeste 35 Noroeste 0 -- -- 50
2019-04-03 19:00:00 8 18 Noroeste 39 Noroeste 0 -- -- 48
2019-04-03 18:00:00 8.3 17 Norte 37 Noroeste 0 -- -- 50
2019-04-03 17:00:00 9 22 Noroeste 39 Norte 0 -- -- 48
2019-04-03 16:00:00 8.3 20 Noroeste 36 Noroeste 0 -- -- 50
2019-04-03 15:00:00 7.9 20 Noroeste 35 Noroeste 0 -- -- 54
2019-04-03 14:00:00 7.1 18 Noroeste 33 Noroeste 0 -- -- 59
2019-04-03 13:00:00 5.8 18 Noroeste 30 Noroeste 0 -- -- 66
2019-04-03 12:00:00 5.3 15 Noroeste 29 Noroeste 0 -- -- 70
2019-04-03 11:00:00 4.4 15 Oeste 28 Oeste 0 -- -- 71
2019-04-03 10:00:00 3 10 Oeste 16 Oeste 0 -- -- 88
2019-04-03 09:00:00 2.6 10 Oeste 22 Oeste 0 -- -- 96
2019-04-03 08:00:00 3.4 12 Oeste 19 Oeste 0 -- -- 97
2019-04-03 07:00:00 3.4 6 Sudoeste 11 Sudoeste 0 -- -- 96
2019-04-03 06:00:00 2.6 4 Sudoeste 11 Sudoeste 0 -- -- 93
2019-04-03 05:00:00 2.4 5 Sudoeste 9 Sur 0 -- -- 93
2019-04-03 04:00:00 2.5 8 Sur 12 Sur 0 -- -- 87
2019-04-03 03:00:00 3.5 4 Sudoeste 10 Sur 0 -- -- 88
2019-04-03 02:00:00 5.4 9 Sudoeste 14 Sudoeste 0 -- -- 87
2019-04-03 01:00:00 5.8 10 Sur 15 Sudoeste 0 -- -- 83
2019-04-03 00:00:00 7 10 Sudoeste 18 Sudoeste 0 -- -- 79
2019-04-02 23:00:00 8 10 Sudoeste 18 Sudoeste 0 -- -- 72
2019-04-02 22:00:00 9.1 10 Sudoeste 17 Sudoeste 0 -- -- 64
2019-04-02 21:00:00 10.9 8 Sudoeste 21 Oeste 0 -- -- 54
2019-04-02 20:00:00 13.4 13 Oeste 30 Oeste 0 -- -- 44
2019-04-02 19:00:00 14.8 17 Oeste 30 Oeste 0 -- -- 37
2019-04-02 18:00:00 15.2 18 Oeste 34 Oeste 0 -- -- 41
2019-04-02 17:00:00 14.9 21 Oeste 33 Oeste 0 -- -- 46
2019-04-02 16:00:00 13.6 18 Oeste 30 Oeste 0 -- -- 49
2019-04-02 15:00:00 13.1 14 Oeste 35 Oeste 0 -- -- 57
2019-04-02 14:00:00 13.1 16 Oeste 27 Noroeste 0 -- -- 52
2019-04-02 13:00:00 11.1 10 Oeste 21 Oeste 0 -- -- 62
2019-04-02 12:00:00 10.9 15 Oeste 21 Sudoeste 0 -- -- 68
2019-04-02 11:00:00 10.5 8 Sudoeste 15 Oeste 0 -- -- 70
2019-04-02 10:00:00 8.8 7 Sudoeste 13 Sudoeste 0 -- -- 77
2019-04-02 09:00:00 5.8 10 Sur 17 Sudeste 0 -- -- 88
2019-04-02 08:00:00 4.2 14 Sur 19 Sur 0 -- -- 88
2019-04-02 07:00:00 4.8 17 Sur 19 Sur 0 -- -- 88
2019-04-02 06:00:00 5.3 12 Sur 15 Sur 0 -- -- 88
2019-04-02 05:00:00 6.8 10 Sur 13 Sur 0 -- -- 85
2019-04-02 04:00:00 7.1 9 Sur 14 Sur 0 -- -- 87
2019-04-02 03:00:00 6.8 9 Sur 12 Sur 0 -- -- 90
2019-04-02 02:00:00 6.8 8 Sur 14 Sur 0 -- -- 89
2019-04-02 01:00:00 7.4 8 Sur 12 Sudeste 0 -- -- 90
2019-04-02 00:00:00 7.6 7 Sur 10 Sur 0 -- -- 86
2019-04-01 23:00:00 8.3 3 Sudoeste 18 Nordeste 0 -- -- 81
2019-04-01 22:00:00 9.7 10 Nordeste 30 Sur 0 -- -- 75
2019-04-01 21:00:00 10.2 8 Sur 20 Sudeste 0 -- -- 71
2019-04-01 20:00:00 11.4 4 Sur 18 Sudeste 0 -- -- 68
2019-04-01 19:00:00 11.6 12 Sudeste 17 Sudeste 0 -- -- 68
2019-04-01 18:00:00 11 8 Sur 22 Sudeste 0 -- -- 72
2019-04-01 17:00:00 11.1 9 Sudoeste 22 Sudeste 0 -- -- 77
2019-04-01 16:00:00 11.2 20 Sudeste 31 Sudeste 0 -- -- 66
2019-04-01 15:00:00 13.2 2 Nordeste 15 Nordeste 0 -- -- 52
2019-04-01 14:00:00 12.8 5 Norte 14 Nordeste 0 -- -- 58
2019-04-01 13:00:00 11.1 8 Noroeste 16 Noroeste 0 -- -- 66
2019-04-01 12:00:00 11.1 6 Norte 14 Noroeste 0 -- -- 67
2019-04-01 11:00:00 10.2 7 Nordeste 16 Este 0 -- -- 71
2019-04-01 10:00:00 8.4 10 Nordeste 14 Nordeste 0 -- -- 79
2019-04-01 09:00:00 4.9 5 Este 12 Este 0 -- -- 93
2019-04-01 08:00:00 5 9 Este 13 Este 0 -- -- 91
2019-04-01 07:00:00 4.7 6 Este 13 Nordeste 0 -- -- 87
2019-04-01 06:00:00 4.6 9 Sur 13 Sur 0 -- -- 87
2019-04-01 05:00:00 4.8 10 Sudeste 14 Sur 0 -- -- 85
2019-04-01 04:00:00 5.7 10 Sudeste 18 Sur 0 -- -- 81
2019-04-01 03:00:00 6.6 14 Sur 18 Sur 0 -- -- 80
2019-04-01 02:00:00 7.4 11 Sudeste 14 Sudeste 0 -- -- 77
2019-04-01 01:00:00 7.3 12 Sur 17 Sur 0 -- -- 78
2019-04-01 00:00:00 7.2 7 Sudeste 16 Sur 0 -- -- 79
2019-03-31 23:00:00 6.5 12 Sudeste 18 Sur 0 -- -- 78
2019-03-31 22:00:00 6.7 15 Sur 20 Sur 0 -- -- 78
2019-03-31 21:00:00 7.6 15 Sur 18 Sur 0 -- -- 76
2019-03-31 20:00:00 9.7 9 Sudeste 10 Sudeste 0 -- -- 76
2019-03-31 19:00:00 13.5 3 Oeste 19 Este 0 -- -- 49
2019-03-31 18:00:00 10.5 8 Sur 14 Sur 0 -- -- 75
2019-03-31 17:00:00 8.4 13 Sur 16 Sur 0.6 -- -- 86
2019-03-31 16:00:00 9 3 Nordeste 33 Nordeste 2 -- -- 74
2019-03-31 15:00:00 11.6 9 Este 18 Nordeste 0 -- -- 50
2019-03-31 14:00:00 13.3 6 Nordeste 19 Nordeste 0 -- -- 48
2019-03-31 13:00:00 13.7 9 Noroeste 16 Noroeste 0 -- -- 51
2019-03-31 12:00:00 12.9 6 Norte 13 Norte 0 -- -- 50
2019-03-31 11:00:00 11 3 Norte 5 Norte 0 -- -- 52
2019-03-31 10:00:00 9.1 3 Sur 9 Sur 0 -- -- 60
2019-03-31 09:00:00 6.9 5 Sur 15 Sur 0 -- -- 63
2019-03-31 08:00:00 4.7 14 Sur 22 Sur 0 -- -- 66
2019-03-31 07:00:00 4.8 16 Sur 20 Sur 0 -- -- 65
2019-03-31 06:00:00 5.4 17 Sur 23 Sur 0 -- -- 63
2019-03-31 05:00:00 5.1 17 Sur 21 Sur 0 -- -- 64
2019-03-31 03:00:00 6.1 17 Sur 22 Sur 0 -- -- 60
2019-03-31 01:00:00 6.3 18 Sur 21 Sur 0 -- -- 58
2019-03-31 00:00:00 6.9 14 Sur 17 Sur 0 -- -- 56
2019-03-30 23:00:00 6.4 8 Sur 14 Sudeste 0 -- -- 59
2019-03-30 22:00:00 7.5 12 Sur 14 Sur 0 -- -- 57
2019-03-30 21:00:00 8.8 9 Sur 17 Sudeste 0 -- -- 56
2019-03-30 20:00:00 11.4 11 Sudeste 16 Sudeste 0 -- -- 47
2019-03-30 19:00:00 13.5 8 Sudeste 14 Sudeste 0 -- -- 41
2019-03-30 18:00:00 14.4 6 Este 17 Nordeste 0 -- -- 34
2019-03-30 17:00:00 15.3 9 Nordeste 16 Nordeste 0 -- -- 32
2019-03-30 16:00:00 14.8 8 Norte 17 Noroeste 0 -- -- 33
2019-03-30 15:00:00 15 3 Norte 9 Nordeste 0 -- -- 33
2019-03-30 14:00:00 14.3 3 Noroeste 13 Sudeste 0 -- -- 31
2019-03-30 13:00:00 13.9 6 Sur 15 Sur 0 -- -- 35
2019-03-30 12:00:00 12.8 5 Sudoeste 14 Noroeste 0 -- -- 34
2019-03-30 11:00:00 14 4 Norte 12 Norte 0 -- -- 33
2019-03-30 10:00:00 12.3 6 Noroeste 9 Noroeste 0 -- -- 38
2019-03-30 09:00:00 10.5 0 Calma 8 Sur 0 -- -- 39
2019-03-30 08:00:00 5.6 5 Sudeste 13 Sur 0 -- -- 53
2019-03-30 07:00:00 4.7 5 Sudeste 16 Sudeste 0 -- -- 55
2019-03-30 06:00:00 4.5 10 Sudeste 15 Sur 0 -- -- 57
2019-03-30 05:00:00 5.7 11 Sudeste 16 Sudeste 0 -- -- 52
2019-03-30 04:00:00 8.8 12 Sudeste 21 Sudeste 0 -- -- 43
2019-03-30 03:00:00 9.3 14 Sudeste 22 Sudeste 0 -- -- 39
2019-03-30 02:00:00 9.6 14 Sudeste 27 Sudeste 0 -- -- 38
2019-03-30 01:00:00 8.9 14 Sudeste 19 Sudeste 0 -- -- 42
2019-03-30 00:00:00 8.9 12 Sudeste 20 Sudeste 0 -- -- 44
2019-03-29 23:00:00 9.6 13 Sudeste 22 Sudeste 0 -- -- 42
2019-03-29 22:00:00 8.9 12 Sur 20 Sudeste 0 -- -- 44
2019-03-29 21:00:00 9.3 14 Sur 17 Sur 0 -- -- 45
2019-03-29 20:00:00 10.6 10 Sudeste 18 Sudoeste 0 -- -- 44
2019-03-29 19:00:00 13.4 5 Noroeste 12 Noroeste 0 -- -- 42
2019-03-29 18:00:00 14.4 10 Norte 17 Norte 0 -- -- 37
2019-03-29 17:00:00 14.4 2 Sudoeste 18 Nordeste 0 -- -- 35
2019-03-29 16:00:00 15.4 7 Norte 17 Norte 0 -- -- 34
2019-03-29 15:00:00 14.8 5 Noroeste 19 Noroeste 0 -- -- 32
2019-03-29 14:00:00 14.3 13 Noroeste 21 Noroeste 0 -- -- 34
2019-03-29 13:00:00 14.8 8 Norte 20 Norte 0 -- -- 37
2019-03-29 12:00:00 13.5 5 Noroeste 18 Norte 0 -- -- 38
2019-03-29 11:00:00 12 7 Noroeste 14 Noroeste 0 -- -- 41
2019-03-29 10:00:00 11.5 6 Noroeste 10 Norte 0 -- -- 40
2019-03-29 09:00:00 9.3 0 Calma 14 Sur 0 -- -- 48
2019-03-29 08:00:00 4.6 13 Sur 17 Sur 0 -- -- 53
2019-03-29 07:00:00 3.7 10 Sudeste 13 Sudeste 0 -- -- 54
2019-03-29 06:00:00 7.4 5 Nordeste 15 Sudeste 0 -- -- 39
2019-03-29 05:00:00 8.7 14 Sudeste 28 Sudeste 0 -- -- 37
2019-03-29 04:00:00 9.7 18 Sudeste 24 Sudeste 0 -- -- 34
2019-03-29 03:00:00 4.7 8 Sudeste 15 Sudeste 0 -- -- 58
2019-03-29 02:00:00 5.4 8 Sur 12 Sur 0 -- -- 55
2019-03-29 01:00:00 5.5 10 Sur 17 Sur 0 -- -- 56
2019-03-29 00:00:00 5.6 16 Sur 22 Sur 0 -- -- 53
2019-03-28 23:00:00 5.7 16 Sur 20 Sur 0 -- -- 52
2019-03-28 22:00:00 6.3 16 Sur 20 Sur 0 -- -- 51
2019-03-28 21:00:00 7.4 15 Sur 18 Sur 0 -- -- 50
2019-03-28 20:00:00 9.8 10 Sur 13 Sur 0 -- -- 48
2019-03-28 19:00:00 14.8 8 Norte 20 Norte 0 -- -- 31
2019-03-28 18:00:00 15.5 10 Norte 22 Norte 0 -- -- 31
2019-03-28 17:00:00 15.8 8 Norte 23 Nordeste 0 -- -- 30
2019-03-28 16:00:00 15.5 8 Norte 22 Norte 0 -- -- 32
2019-03-28 15:00:00 14.9 10 Noroeste 22 Noroeste 0 -- -- 34
2019-03-28 14:00:00 14.1 7 Noroeste 18 Noroeste 0 -- -- 36
2019-03-28 13:00:00 13.3 6 Norte 18 Norte 0 -- -- 39
2019-03-28 12:00:00 12.8 9 Noroeste 19 Noroeste 0 -- -- 41
2019-03-28 11:00:00 12.1 9 Noroeste 15 Noroeste 0 -- -- 38
2019-03-28 10:00:00 11.8 4 Norte 8 Norte 0 -- -- 35
2019-03-28 09:00:00 8.1 4 Sur 15 Sur 0 -- -- 51
2019-03-28 08:00:00 3.4 12 Sur 15 Sur 0 -- -- 60
2019-03-28 07:00:00 1.5 9 Sudeste 14 Sur 0 -- -- 67
2019-03-28 06:00:00 0.9 10 Sur 14 Sur 0 -- -- 68
2019-03-28 05:00:00 1.5 2 Sudeste 8 Sur 0 -- -- 63
2019-03-28 04:00:00 1.7 5 Sur 10 Sur 0 -- -- 62
2019-03-28 03:00:00 2.2 6 Sur 8 Sudeste 0 -- -- 59
2019-03-28 02:00:00 4.9 8 Sudeste 19 Este 0 -- -- 47
2019-03-28 01:00:00 6.5 14 Este 25 Este 0 -- -- 42
2019-03-28 00:00:00 7.5 16 Este 27 Este 0 -- -- 39
2019-03-27 23:00:00 8.9 14 Este 23 Este 0 -- -- 34
2019-03-27 22:00:00 9.5 12 Este 22 Este 0 -- -- 34
2019-03-27 21:00:00 10 12 Este 17 Este 0 -- -- 31
2019-03-27 20:00:00 10.3 10 Este 23 Nordeste 0 -- -- 33
2019-03-27 19:00:00 14.4 15 Nordeste 24 Nordeste 0 -- -- 25
2019-03-27 18:00:00 15.3 18 Nordeste 27 Norte 0 -- -- 25
2019-03-27 17:00:00 16 14 Norte 33 Norte 0 -- -- 26
2019-03-27 16:00:00 15.8 18 Nordeste 29 Nordeste 0 -- -- 30
2019-03-27 15:00:00 15.4 11 Nordeste 27 Norte 0 -- -- 29
2019-03-27 14:00:00 14.5 10 Norte 25 Norte 0 -- -- 38
2019-03-27 13:00:00 12.7 8 Noroeste 17 Norte 0 -- -- 43
2019-03-27 12:00:00 11.6 8 Noroeste 16 Noroeste 0 -- -- 40
2019-03-27 11:00:00 9.8 7 Noroeste 12 Noroeste 0 -- -- 43
2019-03-27 10:00:00 8.2 6 Noroeste 9 Noroeste 0 -- -- 49
2019-03-27 09:00:00 5.9 0 Calma 11 Sudeste 0 -- -- 48
2019-03-27 08:00:00 1.3 5 Sur 9 Sur 0 -- -- 64
2019-03-27 07:00:00 1.1 6 Sudeste 17 Sur 0 -- -- 61
2019-03-27 06:00:00 0.7 8 Sur 13 Sur 0 -- -- 63
2019-03-27 05:00:00 0.5 3 Sur 10 Sur 0 -- -- 61
2019-03-27 04:00:00 3.6 3 Sudeste 17 Este 0 -- -- 48
2019-03-27 03:00:00 6.6 15 Este 18 Este 0 -- -- 38
2019-03-27 02:00:00 5.5 15 Este 18 Este 0 -- -- 40
2019-03-27 01:00:00 6.8 16 Este 22 Este 0 -- -- 39
2019-03-27 00:00:00 6.9 18 Este 21 Este 0 -- -- 38
2019-03-26 23:00:00 7.4 12 Este 32 Nordeste 0 -- -- 40
2019-03-26 22:00:00 9.6 18 Nordeste 29 Nordeste 0 -- -- 34
2019-03-26 21:00:00 11.3 14 Nordeste 32 Nordeste 0 -- -- 33
2019-03-26 20:00:00 13.2 12 Nordeste 33 Nordeste 0 -- -- 31
2019-03-26 19:00:00 15.8 20 Nordeste 36 Nordeste 0 -- -- 29
2019-03-26 18:00:00 16.9 23 Nordeste 43 Nordeste 0 -- -- 28
2019-03-26 17:00:00 16.8 24 Nordeste 37 Nordeste 0 -- -- 32
2019-03-26 16:00:00 16.5 21 Nordeste 34 Nordeste 0 -- -- 34
2019-03-26 15:00:00 15.3 20 Nordeste 31 Nordeste 0 -- -- 39
2019-03-26 14:00:00 13.3 19 Nordeste 31 Nordeste 0 -- -- 43
2019-03-26 13:00:00 11.9 19 Nordeste 32 Nordeste 0 -- -- 48
2019-03-26 12:00:00 10.4 22 Nordeste 34 Nordeste 0 -- -- 52
2019-03-26 11:00:00 8.4 24 Nordeste 41 Nordeste 0 -- -- 53
2019-03-26 10:00:00 8.6 22 Nordeste 36 Este 0 -- -- 46
2019-03-26 09:00:00 5.4 21 Nordeste 30 Nordeste 0 -- -- 56
2019-03-26 08:00:00 2.1 18 Nordeste 25 Nordeste 0 -- -- 68
2019-03-26 07:00:00 0.4 16 Nordeste 22 Este 0 -- -- 76
2019-03-26 06:00:00 0.2 19 Este 24 Nordeste 0 -- -- 79
2019-03-26 05:00:00 0.7 19 Nordeste 27 Este 0 -- -- 77
2019-03-26 04:00:00 1 22 Este 28 Nordeste 0 -- -- 77
2019-03-26 03:00:00 2.2 18 Nordeste 28 Nordeste 0 -- -- 75
2019-03-26 02:00:00 3.3 17 Nordeste 28 Este 0 -- -- 72
2019-03-26 01:00:00 4.6 18 Este 31 Este 0 -- -- 68
2019-03-26 00:00:00 6 17 Nordeste 33 Nordeste 0 -- -- 62
2019-03-25 23:00:00 6.9 30 Este 43 Este 0 -- -- 59
2019-03-25 22:00:00 7.8 24 Este 39 Nordeste 0 -- -- 55
2019-03-25 21:00:00 9.3 19 Este 30 Nordeste 0 -- -- 46
2019-03-25 20:00:00 11 21 Nordeste 41 Nordeste 0 -- -- 41
2019-03-25 19:00:00 13.3 26 Nordeste 43 Nordeste 0 -- -- 32
2019-03-25 18:00:00 15 29 Nordeste 39 Nordeste 0 -- -- 30
2019-03-25 17:00:00 16.2 24 Nordeste 39 Nordeste 0 -- -- 33
2019-03-25 16:00:00 16.6 22 Nordeste 33 Nordeste 0 -- -- 36
2019-03-25 15:00:00 15.9 23 Nordeste 33 Nordeste 0 -- -- 39
2019-03-25 14:00:00 15.7 20 Nordeste 32 Nordeste 0 -- -- 45
2019-03-25 13:00:00 15.4 17 Nordeste 26 Nordeste 0 -- -- 47
2019-03-25 12:00:00 14.9 13 Norte 21 Norte 0 -- -- 46
2019-03-25 11:00:00 13.1 5 Nordeste 10 Noroeste 0 -- -- 49
2019-03-25 10:00:00 10.9 6 Noroeste 12 Oeste 0 -- -- 58
2019-03-25 09:00:00 7.9 4 Noroeste 12 Sur 0 -- -- 61
2019-03-25 08:00:00 5.7 7 Sur 14 Sur 0 -- -- 61
2019-03-25 07:00:00 4.5 8 Sudeste 16 Sudeste 0 -- -- 64
2019-03-25 06:00:00 3.7 15 Sudeste 18 Sur 0 -- -- 70
2019-03-25 05:00:00 3.9 5 Este 13 Norte 0 -- -- 73
2019-03-25 04:00:00 5.7 7 Este 14 Nordeste 0 -- -- 63
2019-03-25 03:00:00 8.5 12 Este 17 Nordeste 0 -- -- 51
2019-03-25 02:00:00 9.9 13 Este 19 Sudeste 0 -- -- 46
2019-03-25 01:00:00 6.6 11 Sudeste 18 Sur 0 -- -- 60
2019-03-25 00:00:00 6.1 11 Sur 13 Sur 0 -- -- 61